<?xml version="1.0" encoding="utf-8"?>
<gpx xmlns:xsi="http://www.w3.org/2001/XMLSchema-instance" xmlns:xsd="http://www.w3.org/2001/XMLSchema" version="1.1" creator="Shapelink.com" xmlns="http://www.topografix.com/GPX/1/1" xmlns:gpxtpx="http://www.garmin.com/xmlschemas/TrackPointExtension/v1">
  <metadata>
    <name>Løping 5.00 km, 2012-08-23</name>
    <desc></desc>
    <author><name>Mikael Blom</name></author> 
    <time>2012-08-23T19:49:05Z</time>
  </metadata>
  <trk>
    <name>Løping 5.00 km, 2012-08-23</name>
    <trkseg>
      <trkpt lat="59.9790423" lon="17.7392341">
        <ele>35.7061</ele>
        <time>2012-08-23T19:49:05Z</time>
      </trkpt>
      <trkpt lat="59.979204" lon="17.7391181">
        <ele>36.6675</ele>
        <time>2012-08-23T19:49:11Z</time>
      </trkpt>
      <trkpt lat="59.9793065" lon="17.7390664">
        <ele>38.5901</ele>
        <time>2012-08-23T19:49:15Z</time>
      </trkpt>
      <trkpt lat="59.9794152" lon="17.7389715">
        <ele>39.5513</ele>
        <time>2012-08-23T19:49:20Z</time>
      </trkpt>
      <trkpt lat="59.9795168" lon="17.7389051">
        <ele>39.5513</ele>
        <time>2012-08-23T19:49:24Z</time>
      </trkpt>
      <trkpt lat="59.9796536" lon="17.7388171">
        <ele>43.8773</ele>
        <time>2012-08-23T19:49:29Z</time>
      </trkpt>
      <trkpt lat="59.9797291" lon="17.7387711">
        <ele>45.3192</ele>
        <time>2012-08-23T19:49:32Z</time>
      </trkpt>
      <trkpt lat="59.9798377" lon="17.7387476">
        <ele>45.3192</ele>
        <time>2012-08-23T19:49:37Z</time>
      </trkpt>
      <trkpt lat="59.979956" lon="17.7387177">
        <ele>47.7225</ele>
        <time>2012-08-23T19:49:41Z</time>
      </trkpt>
      <trkpt lat="59.9801121" lon="17.7387254">
        <ele>48.684</ele>
        <time>2012-08-23T19:49:46Z</time>
      </trkpt>
      <trkpt lat="59.9802539" lon="17.7387735">
        <ele>51.5679</ele>
        <time>2012-08-23T19:49:52Z</time>
      </trkpt>
      <trkpt lat="59.9803538" lon="17.7387716">
        <ele>53.0098</ele>
        <time>2012-08-23T19:49:56Z</time>
      </trkpt>
      <trkpt lat="59.9804502" lon="17.7387157">
        <ele>52.0486</ele>
        <time>2012-08-23T19:50:00Z</time>
      </trkpt>
      <trkpt lat="59.9805757" lon="17.7386602">
        <ele>50.126</ele>
        <time>2012-08-23T19:50:06Z</time>
      </trkpt>
      <trkpt lat="59.9807033" lon="17.7386337">
        <ele>52.5292</ele>
        <time>2012-08-23T19:50:11Z</time>
      </trkpt>
      <trkpt lat="59.9808222" lon="17.7385773">
        <ele>51.5679</ele>
        <time>2012-08-23T19:50:16Z</time>
      </trkpt>
      <trkpt lat="59.980952" lon="17.7385349">
        <ele>53.4905</ele>
        <time>2012-08-23T19:50:22Z</time>
      </trkpt>
      <trkpt lat="59.9810676" lon="17.7385307">
        <ele>54.9324</ele>
        <time>2012-08-23T19:50:27Z</time>
      </trkpt>
      <trkpt lat="59.9811883" lon="17.7385229">
        <ele>55.4131</ele>
        <time>2012-08-23T19:50:32Z</time>
      </trkpt>
      <trkpt lat="59.9812138" lon="17.7385027">
        <ele>56.3745</ele>
        <time>2012-08-23T19:50:33Z</time>
      </trkpt>
      <trkpt lat="59.9813451" lon="17.7384368">
        <ele>57.8165</ele>
        <time>2012-08-23T19:50:39Z</time>
      </trkpt>
      <trkpt lat="59.9814615" lon="17.7383851">
        <ele>56.8551</ele>
        <time>2012-08-23T19:50:44Z</time>
      </trkpt>
      <trkpt lat="59.98158" lon="17.7383706">
        <ele>58.7777</ele>
        <time>2012-08-23T19:50:49Z</time>
      </trkpt>
      <trkpt lat="59.9816914" lon="17.7383053">
        <ele>58.7777</ele>
        <time>2012-08-23T19:50:54Z</time>
      </trkpt>
      <trkpt lat="59.9817883" lon="17.7382701">
        <ele>57.3358</ele>
        <time>2012-08-23T19:50:58Z</time>
      </trkpt>
      <trkpt lat="59.9819149" lon="17.7382241">
        <ele>57.3358</ele>
        <time>2012-08-23T19:51:03Z</time>
      </trkpt>
      <trkpt lat="59.9820602" lon="17.7381692">
        <ele>58.2971</ele>
        <time>2012-08-23T19:51:09Z</time>
      </trkpt>
      <trkpt lat="59.9821843" lon="17.7381224">
        <ele>58.7777</ele>
        <time>2012-08-23T19:51:14Z</time>
      </trkpt>
      <trkpt lat="59.9823249" lon="17.7380484">
        <ele>58.2971</ele>
        <time>2012-08-23T19:51:20Z</time>
      </trkpt>
      <trkpt lat="59.982453" lon="17.7380444">
        <ele>58.2971</ele>
        <time>2012-08-23T19:51:25Z</time>
      </trkpt>
      <trkpt lat="59.982591" lon="17.7380518">
        <ele>59.2584</ele>
        <time>2012-08-23T19:51:30Z</time>
      </trkpt>
      <trkpt lat="59.9827712" lon="17.7380597">
        <ele>58.7777</ele>
        <time>2012-08-23T19:51:37Z</time>
      </trkpt>
      <trkpt lat="59.9828901" lon="17.7380676">
        <ele>58.7777</ele>
        <time>2012-08-23T19:51:42Z</time>
      </trkpt>
      <trkpt lat="59.9830366" lon="17.738081">
        <ele>57.3358</ele>
        <time>2012-08-23T19:51:48Z</time>
      </trkpt>
      <trkpt lat="59.9831584" lon="17.7380893">
        <ele>53.9712</ele>
        <time>2012-08-23T19:51:53Z</time>
      </trkpt>
      <trkpt lat="59.9833081" lon="17.7380651">
        <ele>54.4518</ele>
        <time>2012-08-23T19:51:59Z</time>
      </trkpt>
      <trkpt lat="59.9834382" lon="17.7380682">
        <ele>56.3745</ele>
        <time>2012-08-23T19:52:04Z</time>
      </trkpt>
      <trkpt lat="59.9835453" lon="17.7380769">
        <ele>58.2971</ele>
        <time>2012-08-23T19:52:08Z</time>
      </trkpt>
      <trkpt lat="59.983641" lon="17.7380153">
        <ele>60.2197</ele>
        <time>2012-08-23T19:52:12Z</time>
      </trkpt>
      <trkpt lat="59.9838127" lon="17.7379739">
        <ele>63.5844</ele>
        <time>2012-08-23T19:52:18Z</time>
      </trkpt>
      <trkpt lat="59.9839105" lon="17.7379598">
        <ele>63.1036</ele>
        <time>2012-08-23T19:52:22Z</time>
      </trkpt>
      <trkpt lat="59.9840477" lon="17.7379738">
        <ele>62.6229</ele>
        <time>2012-08-23T19:52:28Z</time>
      </trkpt>
      <trkpt lat="59.9841693" lon="17.7379526">
        <ele>64.0651</ele>
        <time>2012-08-23T19:52:33Z</time>
      </trkpt>
      <trkpt lat="59.9841949" lon="17.7379499">
        <ele>64.0651</ele>
        <time>2012-08-23T19:52:34Z</time>
      </trkpt>
      <trkpt lat="59.9843252" lon="17.7379628">
        <ele>62.1423</ele>
        <time>2012-08-23T19:52:39Z</time>
      </trkpt>
      <trkpt lat="59.9844243" lon="17.7380024">
        <ele>60.7003</ele>
        <time>2012-08-23T19:52:43Z</time>
      </trkpt>
      <trkpt lat="59.984541" lon="17.7380163">
        <ele>59.2584</ele>
        <time>2012-08-23T19:52:47Z</time>
      </trkpt>
      <trkpt lat="59.9846865" lon="17.7380432">
        <ele>57.8165</ele>
        <time>2012-08-23T19:52:53Z</time>
      </trkpt>
      <trkpt lat="59.9848134" lon="17.7380686">
        <ele>55.8938</ele>
        <time>2012-08-23T19:52:58Z</time>
      </trkpt>
      <trkpt lat="59.984933" lon="17.7380957">
        <ele>53.4905</ele>
        <time>2012-08-23T19:53:03Z</time>
      </trkpt>
      <trkpt lat="59.9850569" lon="17.7381384">
        <ele>51.0872</ele>
        <time>2012-08-23T19:53:08Z</time>
      </trkpt>
      <trkpt lat="59.9852064" lon="17.7381505">
        <ele>53.4905</ele>
        <time>2012-08-23T19:53:14Z</time>
      </trkpt>
      <trkpt lat="59.9852476" lon="17.738168">
        <ele>53.0098</ele>
        <time>2012-08-23T19:53:16Z</time>
      </trkpt>
      <trkpt lat="59.9853732" lon="17.738206">
        <ele>52.5292</ele>
        <time>2012-08-23T19:53:21Z</time>
      </trkpt>
      <trkpt lat="59.9854989" lon="17.7382541">
        <ele>55.4131</ele>
        <time>2012-08-23T19:53:26Z</time>
      </trkpt>
      <trkpt lat="59.9856358" lon="17.7383705">
        <ele>51.5679</ele>
        <time>2012-08-23T19:53:32Z</time>
      </trkpt>
      <trkpt lat="59.9857749" lon="17.7384162">
        <ele>52.5292</ele>
        <time>2012-08-23T19:53:37Z</time>
      </trkpt>
      <trkpt lat="59.985867" lon="17.7384818">
        <ele>47.2418</ele>
        <time>2012-08-23T19:53:42Z</time>
      </trkpt>
      <trkpt lat="59.9860079" lon="17.738554">
        <ele>46.2806</ele>
        <time>2012-08-23T19:53:48Z</time>
      </trkpt>
      <trkpt lat="59.9860841" lon="17.7386259">
        <ele>45.3192</ele>
        <time>2012-08-23T19:53:51Z</time>
      </trkpt>
      <trkpt lat="59.9862355" lon="17.7386882">
        <ele>43.3966</ele>
        <time>2012-08-23T19:53:57Z</time>
      </trkpt>
      <trkpt lat="59.9863269" lon="17.7387425">
        <ele>41.474</ele>
        <time>2012-08-23T19:54:01Z</time>
      </trkpt>
      <trkpt lat="59.9864581" lon="17.7388268">
        <ele>44.358</ele>
        <time>2012-08-23T19:54:06Z</time>
      </trkpt>
      <trkpt lat="59.9866017" lon="17.7389159">
        <ele>46.7612</ele>
        <time>2012-08-23T19:54:11Z</time>
      </trkpt>
      <trkpt lat="59.9867321" lon="17.7390522">
        <ele>51.0872</ele>
        <time>2012-08-23T19:54:16Z</time>
      </trkpt>
      <trkpt lat="59.9868196" lon="17.7391378">
        <ele>55.4131</ele>
        <time>2012-08-23T19:54:20Z</time>
      </trkpt>
      <trkpt lat="59.9869248" lon="17.739257">
        <ele>60.2197</ele>
        <time>2012-08-23T19:54:25Z</time>
      </trkpt>
      <trkpt lat="59.9870441" lon="17.73935">
        <ele>64.5457</ele>
        <time>2012-08-23T19:54:30Z</time>
      </trkpt>
      <trkpt lat="59.9871627" lon="17.7393833">
        <ele>63.5844</ele>
        <time>2012-08-23T19:54:35Z</time>
      </trkpt>
      <trkpt lat="59.9872651" lon="17.7393679">
        <ele>63.5844</ele>
        <time>2012-08-23T19:54:40Z</time>
      </trkpt>
      <trkpt lat="59.9873733" lon="17.7393161">
        <ele>60.2197</ele>
        <time>2012-08-23T19:54:45Z</time>
      </trkpt>
      <trkpt lat="59.9874523" lon="17.7392858">
        <ele>62.6229</ele>
        <time>2012-08-23T19:54:49Z</time>
      </trkpt>
      <trkpt lat="59.9876403" lon="17.7392477">
        <ele>64.0651</ele>
        <time>2012-08-23T19:54:57Z</time>
      </trkpt>
      <trkpt lat="59.9877515" lon="17.7392658">
        <ele>63.1036</ele>
        <time>2012-08-23T19:55:02Z</time>
      </trkpt>
      <trkpt lat="59.9878653" lon="17.7392415">
        <ele>60.7003</ele>
        <time>2012-08-23T19:55:07Z</time>
      </trkpt>
      <trkpt lat="59.9879804" lon="17.7392077">
        <ele>62.6229</ele>
        <time>2012-08-23T19:55:12Z</time>
      </trkpt>
      <trkpt lat="59.9881381" lon="17.7391098">
        <ele>64.0651</ele>
        <time>2012-08-23T19:55:19Z</time>
      </trkpt>
      <trkpt lat="59.988242" lon="17.7390771">
        <ele>65.0264</ele>
        <time>2012-08-23T19:55:23Z</time>
      </trkpt>
      <trkpt lat="59.9883597" lon="17.739015">
        <ele>66.4683</ele>
        <time>2012-08-23T19:55:28Z</time>
      </trkpt>
      <trkpt lat="59.9884999" lon="17.7389856">
        <ele>67.4297</ele>
        <time>2012-08-23T19:55:33Z</time>
      </trkpt>
      <trkpt lat="59.9886025" lon="17.7389465">
        <ele>68.3909</ele>
        <time>2012-08-23T19:55:37Z</time>
      </trkpt>
      <trkpt lat="59.988741" lon="17.7388865">
        <ele>67.4297</ele>
        <time>2012-08-23T19:55:43Z</time>
      </trkpt>
      <trkpt lat="59.9888537" lon="17.7388297">
        <ele>65.9877</ele>
        <time>2012-08-23T19:55:48Z</time>
      </trkpt>
      <trkpt lat="59.9889451" lon="17.7387419">
        <ele>65.5071</ele>
        <time>2012-08-23T19:55:53Z</time>
      </trkpt>
      <trkpt lat="59.9890097" lon="17.7387022">
        <ele>65.5071</ele>
        <time>2012-08-23T19:55:56Z</time>
      </trkpt>
      <trkpt lat="59.9891486" lon="17.7385825">
        <ele>67.4297</ele>
        <time>2012-08-23T19:56:02Z</time>
      </trkpt>
      <trkpt lat="59.9892936" lon="17.7384902">
        <ele>67.9103</ele>
        <time>2012-08-23T19:56:08Z</time>
      </trkpt>
      <trkpt lat="59.9894434" lon="17.7384103">
        <ele>67.9103</ele>
        <time>2012-08-23T19:56:14Z</time>
      </trkpt>
      <trkpt lat="59.9895916" lon="17.7383608">
        <ele>66.949</ele>
        <time>2012-08-23T19:56:20Z</time>
      </trkpt>
      <trkpt lat="59.9897452" lon="17.7383235">
        <ele>65.0264</ele>
        <time>2012-08-23T19:56:26Z</time>
      </trkpt>
      <trkpt lat="59.989889" lon="17.7382634">
        <ele>65.9877</ele>
        <time>2012-08-23T19:56:32Z</time>
      </trkpt>
      <trkpt lat="59.9899923" lon="17.7382432">
        <ele>68.3909</ele>
        <time>2012-08-23T19:56:36Z</time>
      </trkpt>
      <trkpt lat="59.9901575" lon="17.7381613">
        <ele>69.3523</ele>
        <time>2012-08-23T19:56:42Z</time>
      </trkpt>
      <trkpt lat="59.9903162" lon="17.7381063">
        <ele>70.7942</ele>
        <time>2012-08-23T19:56:48Z</time>
      </trkpt>
      <trkpt lat="59.990464" lon="17.7380318">
        <ele>69.8329</ele>
        <time>2012-08-23T19:56:54Z</time>
      </trkpt>
      <trkpt lat="59.9906001" lon="17.7379971">
        <ele>68.8716</ele>
        <time>2012-08-23T19:56:59Z</time>
      </trkpt>
      <trkpt lat="59.9907206" lon="17.7379329">
        <ele>67.4297</ele>
        <time>2012-08-23T19:57:04Z</time>
      </trkpt>
      <trkpt lat="59.9908603" lon="17.7378079">
        <ele>67.9103</ele>
        <time>2012-08-23T19:57:10Z</time>
      </trkpt>
      <trkpt lat="59.9909669" lon="17.7377563">
        <ele>67.9103</ele>
        <time>2012-08-23T19:57:14Z</time>
      </trkpt>
      <trkpt lat="59.9910741" lon="17.737662">
        <ele>69.8329</ele>
        <time>2012-08-23T19:57:18Z</time>
      </trkpt>
      <trkpt lat="59.9911404" lon="17.7375952">
        <ele>70.3135</ele>
        <time>2012-08-23T19:57:21Z</time>
      </trkpt>
      <trkpt lat="59.9913117" lon="17.7375381">
        <ele>71.7555</ele>
        <time>2012-08-23T19:57:27Z</time>
      </trkpt>
      <trkpt lat="59.9913424" lon="17.7375434">
        <ele>71.7555</ele>
        <time>2012-08-23T19:57:28Z</time>
      </trkpt>
      <trkpt lat="59.9915129" lon="17.7375416">
        <ele>69.8329</ele>
        <time>2012-08-23T19:57:34Z</time>
      </trkpt>
      <trkpt lat="59.9916582" lon="17.737546">
        <ele>71.2749</ele>
        <time>2012-08-23T19:57:39Z</time>
      </trkpt>
      <trkpt lat="59.9917856" lon="17.7375326">
        <ele>70.3135</ele>
        <time>2012-08-23T19:57:43Z</time>
      </trkpt>
      <trkpt lat="59.9919231" lon="17.7374848">
        <ele>67.9103</ele>
        <time>2012-08-23T19:57:49Z</time>
      </trkpt>
      <trkpt lat="59.9920743" lon="17.737431">
        <ele>64.5457</ele>
        <time>2012-08-23T19:57:55Z</time>
      </trkpt>
      <trkpt lat="59.9921904" lon="17.7373926">
        <ele>63.5844</ele>
        <time>2012-08-23T19:57:59Z</time>
      </trkpt>
      <trkpt lat="59.9922691" lon="17.7374097">
        <ele>64.5457</ele>
        <time>2012-08-23T19:58:02Z</time>
      </trkpt>
      <trkpt lat="59.9923119" lon="17.7374567">
        <ele>62.6229</ele>
        <time>2012-08-23T19:58:03Z</time>
      </trkpt>
      <trkpt lat="59.9923069" lon="17.737476">
        <ele>61.181</ele>
        <time>2012-08-23T19:58:04Z</time>
      </trkpt>
      <trkpt lat="59.9922406" lon="17.7376064">
        <ele>56.8551</ele>
        <time>2012-08-23T19:58:07Z</time>
      </trkpt>
      <trkpt lat="59.9921625" lon="17.7376169">
        <ele>53.0098</ele>
        <time>2012-08-23T19:58:10Z</time>
      </trkpt>
      <trkpt lat="59.9920921" lon="17.7375665">
        <ele>51.5679</ele>
        <time>2012-08-23T19:58:13Z</time>
      </trkpt>
      <trkpt lat="59.9920127" lon="17.7375687">
        <ele>50.126</ele>
        <time>2012-08-23T19:58:16Z</time>
      </trkpt>
      <trkpt lat="59.9919387" lon="17.7375439">
        <ele>48.684</ele>
        <time>2012-08-23T19:58:19Z</time>
      </trkpt>
      <trkpt lat="59.9918945" lon="17.737533">
        <ele>46.7612</ele>
        <time>2012-08-23T19:58:21Z</time>
      </trkpt>
      <trkpt lat="59.9917396" lon="17.7375299">
        <ele>48.2034</ele>
        <time>2012-08-23T19:58:26Z</time>
      </trkpt>
      <trkpt lat="59.9916521" lon="17.7374978">
        <ele>43.3966</ele>
        <time>2012-08-23T19:58:30Z</time>
      </trkpt>
      <trkpt lat="59.9915284" lon="17.7375257">
        <ele>40.0321</ele>
        <time>2012-08-23T19:58:35Z</time>
      </trkpt>
      <trkpt lat="59.991404" lon="17.7375737">
        <ele>38.5901</ele>
        <time>2012-08-23T19:58:39Z</time>
      </trkpt>
      <trkpt lat="59.9912646" lon="17.7375983">
        <ele>39.0707</ele>
        <time>2012-08-23T19:58:44Z</time>
      </trkpt>
      <trkpt lat="59.9911943" lon="17.7375817">
        <ele>39.5513</ele>
        <time>2012-08-23T19:58:48Z</time>
      </trkpt>
      <trkpt lat="59.9910871" lon="17.7376348">
        <ele>38.5901</ele>
        <time>2012-08-23T19:58:52Z</time>
      </trkpt>
      <trkpt lat="59.990989" lon="17.7377061">
        <ele>39.0707</ele>
        <time>2012-08-23T19:58:56Z</time>
      </trkpt>
      <trkpt lat="59.990904" lon="17.7377677">
        <ele>39.0707</ele>
        <time>2012-08-23T19:58:59Z</time>
      </trkpt>
      <trkpt lat="59.990874" lon="17.7377964">
        <ele>39.5513</ele>
        <time>2012-08-23T19:59:00Z</time>
      </trkpt>
      <trkpt lat="59.9907936" lon="17.7378505">
        <ele>40.9934</ele>
        <time>2012-08-23T19:59:03Z</time>
      </trkpt>
      <trkpt lat="59.9906975" lon="17.7379206">
        <ele>40.0321</ele>
        <time>2012-08-23T19:59:07Z</time>
      </trkpt>
      <trkpt lat="59.9906217" lon="17.7379556">
        <ele>41.474</ele>
        <time>2012-08-23T19:59:11Z</time>
      </trkpt>
      <trkpt lat="59.9905494" lon="17.737993">
        <ele>39.5513</ele>
        <time>2012-08-23T19:59:14Z</time>
      </trkpt>
      <trkpt lat="59.9904109" lon="17.7380546">
        <ele>38.1094</ele>
        <time>2012-08-23T19:59:20Z</time>
      </trkpt>
      <trkpt lat="59.990363" lon="17.7380655">
        <ele>37.6287</ele>
        <time>2012-08-23T19:59:22Z</time>
      </trkpt>
      <trkpt lat="59.9903085" lon="17.7380333">
        <ele>38.5901</ele>
        <time>2012-08-23T19:59:24Z</time>
      </trkpt>
      <trkpt lat="59.9902109" lon="17.738085">
        <ele>37.1481</ele>
        <time>2012-08-23T19:59:28Z</time>
      </trkpt>
      <trkpt lat="59.9900967" lon="17.7381685">
        <ele>33.3029</ele>
        <time>2012-08-23T19:59:33Z</time>
      </trkpt>
      <trkpt lat="59.9900286" lon="17.7382112">
        <ele>33.3029</ele>
        <time>2012-08-23T19:59:36Z</time>
      </trkpt>
      <trkpt lat="59.9899454" lon="17.738287">
        <ele>31.8607</ele>
        <time>2012-08-23T19:59:40Z</time>
      </trkpt>
      <trkpt lat="59.9898375" lon="17.7382172">
        <ele>30.4188</ele>
        <time>2012-08-23T19:59:45Z</time>
      </trkpt>
      <trkpt lat="59.989737" lon="17.7382681">
        <ele>28.9769</ele>
        <time>2012-08-23T19:59:49Z</time>
      </trkpt>
      <trkpt lat="59.9896112" lon="17.7382846">
        <ele>26.5736</ele>
        <time>2012-08-23T19:59:54Z</time>
      </trkpt>
      <trkpt lat="59.9895579" lon="17.7382902">
        <ele>25.6123</ele>
        <time>2012-08-23T19:59:57Z</time>
      </trkpt>
      <trkpt lat="59.9894418" lon="17.7383062">
        <ele>26.5736</ele>
        <time>2012-08-23T20:00:02Z</time>
      </trkpt>
      <trkpt lat="59.9893938" lon="17.7383057">
        <ele>25.6123</ele>
        <time>2012-08-23T20:00:04Z</time>
      </trkpt>
      <trkpt lat="59.9893054" lon="17.7383571">
        <ele>25.6123</ele>
        <time>2012-08-23T20:00:08Z</time>
      </trkpt>
      <trkpt lat="59.9892206" lon="17.7384504">
        <ele>27.0543</ele>
        <time>2012-08-23T20:00:12Z</time>
      </trkpt>
      <trkpt lat="59.9891777" lon="17.7384834">
        <ele>27.5349</ele>
        <time>2012-08-23T20:00:14Z</time>
      </trkpt>
      <trkpt lat="59.9890559" lon="17.7385786">
        <ele>26.5736</ele>
        <time>2012-08-23T20:00:20Z</time>
      </trkpt>
      <trkpt lat="59.9889452" lon="17.7386478">
        <ele>25.1317</ele>
        <time>2012-08-23T20:00:25Z</time>
      </trkpt>
      <trkpt lat="59.9889243" lon="17.7386717">
        <ele>25.1317</ele>
        <time>2012-08-23T20:00:26Z</time>
      </trkpt>
      <trkpt lat="59.9887995" lon="17.7387599">
        <ele>24.1703</ele>
        <time>2012-08-23T20:00:31Z</time>
      </trkpt>
      <trkpt lat="59.9887083" lon="17.7387856">
        <ele>25.1317</ele>
        <time>2012-08-23T20:00:35Z</time>
      </trkpt>
      <trkpt lat="59.9886559" lon="17.7388223">
        <ele>24.651</ele>
        <time>2012-08-23T20:00:37Z</time>
      </trkpt>
      <trkpt lat="59.9885418" lon="17.7389609">
        <ele>24.651</ele>
        <time>2012-08-23T20:00:41Z</time>
      </trkpt>
      <trkpt lat="59.9883772" lon="17.7390568">
        <ele>28.9769</ele>
        <time>2012-08-23T20:00:47Z</time>
      </trkpt>
      <trkpt lat="59.9882344" lon="17.7391714">
        <ele>38.5901</ele>
        <time>2012-08-23T20:00:52Z</time>
      </trkpt>
      <trkpt lat="59.9881789" lon="17.7391953">
        <ele>40.0321</ele>
        <time>2012-08-23T20:00:54Z</time>
      </trkpt>
      <trkpt lat="59.988055" lon="17.7393186">
        <ele>47.7225</ele>
        <time>2012-08-23T20:00:58Z</time>
      </trkpt>
      <trkpt lat="59.9879604" lon="17.7394442">
        <ele>54.9324</ele>
        <time>2012-08-23T20:01:01Z</time>
      </trkpt>
      <trkpt lat="59.987924" lon="17.7394491">
        <ele>57.3358</ele>
        <time>2012-08-23T20:01:02Z</time>
      </trkpt>
      <trkpt lat="59.9877579" lon="17.7395102">
        <ele>66.4683</ele>
        <time>2012-08-23T20:01:08Z</time>
      </trkpt>
      <trkpt lat="59.9876158" lon="17.7395346">
        <ele>68.3909</ele>
        <time>2012-08-23T20:01:13Z</time>
      </trkpt>
      <trkpt lat="59.9874782" lon="17.7395351">
        <ele>70.3135</ele>
        <time>2012-08-23T20:01:18Z</time>
      </trkpt>
      <trkpt lat="59.9873983" lon="17.7395437">
        <ele>70.7942</ele>
        <time>2012-08-23T20:01:21Z</time>
      </trkpt>
      <trkpt lat="59.987335" lon="17.7395039">
        <ele>68.3909</ele>
        <time>2012-08-23T20:01:24Z</time>
      </trkpt>
      <trkpt lat="59.9872477" lon="17.7395243">
        <ele>66.4683</ele>
        <time>2012-08-23T20:01:28Z</time>
      </trkpt>
      <trkpt lat="59.9871786" lon="17.7395352">
        <ele>63.1036</ele>
        <time>2012-08-23T20:01:31Z</time>
      </trkpt>
      <trkpt lat="59.9871209" lon="17.7395019">
        <ele>60.7003</ele>
        <time>2012-08-23T20:01:33Z</time>
      </trkpt>
      <trkpt lat="59.9869482" lon="17.7394758">
        <ele>63.5844</ele>
        <time>2012-08-23T20:01:39Z</time>
      </trkpt>
      <trkpt lat="59.9868171" lon="17.7393634">
        <ele>62.1423</ele>
        <time>2012-08-23T20:01:45Z</time>
      </trkpt>
      <trkpt lat="59.9867915" lon="17.7393389">
        <ele>62.1423</ele>
        <time>2012-08-23T20:01:46Z</time>
      </trkpt>
      <trkpt lat="59.9867026" lon="17.7392361">
        <ele>60.2197</ele>
        <time>2012-08-23T20:01:50Z</time>
      </trkpt>
      <trkpt lat="59.986591" lon="17.7390771">
        <ele>54.9324</ele>
        <time>2012-08-23T20:01:56Z</time>
      </trkpt>
      <trkpt lat="59.986485" lon="17.7389647">
        <ele>52.5292</ele>
        <time>2012-08-23T20:02:00Z</time>
      </trkpt>
      <trkpt lat="59.9863607" lon="17.7388385">
        <ele>49.1646</ele>
        <time>2012-08-23T20:02:06Z</time>
      </trkpt>
      <trkpt lat="59.9862238" lon="17.7386768">
        <ele>51.5679</ele>
        <time>2012-08-23T20:02:11Z</time>
      </trkpt>
      <trkpt lat="59.9861386" lon="17.7386093">
        <ele>52.0486</ele>
        <time>2012-08-23T20:02:15Z</time>
      </trkpt>
      <trkpt lat="59.9860453" lon="17.738524">
        <ele>50.126</ele>
        <time>2012-08-23T20:02:19Z</time>
      </trkpt>
      <trkpt lat="59.9860064" lon="17.7384486">
        <ele>49.1646</ele>
        <time>2012-08-23T20:02:21Z</time>
      </trkpt>
      <trkpt lat="59.9859419" lon="17.7383865">
        <ele>45.7999</ele>
        <time>2012-08-23T20:02:24Z</time>
      </trkpt>
      <trkpt lat="59.9857701" lon="17.7383775">
        <ele>42.916</ele>
        <time>2012-08-23T20:02:30Z</time>
      </trkpt>
      <trkpt lat="59.9856841" lon="17.7383748">
        <ele>42.4354</ele>
        <time>2012-08-23T20:02:33Z</time>
      </trkpt>
      <trkpt lat="59.9855778" lon="17.7383386">
        <ele>42.4354</ele>
        <time>2012-08-23T20:02:37Z</time>
      </trkpt>
      <trkpt lat="59.9854423" lon="17.7382519">
        <ele>38.5901</ele>
        <time>2012-08-23T20:02:42Z</time>
      </trkpt>
      <trkpt lat="59.9853029" lon="17.7382518">
        <ele>42.916</ele>
        <time>2012-08-23T20:02:47Z</time>
      </trkpt>
      <trkpt lat="59.9852434" lon="17.7382551">
        <ele>43.8773</ele>
        <time>2012-08-23T20:02:49Z</time>
      </trkpt>
      <trkpt lat="59.9850736" lon="17.7383282">
        <ele>46.7612</ele>
        <time>2012-08-23T20:02:54Z</time>
      </trkpt>
      <trkpt lat="59.9849626" lon="17.7383344">
        <ele>47.2418</ele>
        <time>2012-08-23T20:02:58Z</time>
      </trkpt>
      <trkpt lat="59.9848015" lon="17.7383362">
        <ele>49.6453</ele>
        <time>2012-08-23T20:03:04Z</time>
      </trkpt>
      <trkpt lat="59.9847066" lon="17.738307">
        <ele>49.1646</ele>
        <time>2012-08-23T20:03:08Z</time>
      </trkpt>
      <trkpt lat="59.9845891" lon="17.738253">
        <ele>49.1646</ele>
        <time>2012-08-23T20:03:13Z</time>
      </trkpt>
      <trkpt lat="59.984485" lon="17.7381819">
        <ele>50.6066</ele>
        <time>2012-08-23T20:03:17Z</time>
      </trkpt>
      <trkpt lat="59.9843819" lon="17.7381212">
        <ele>49.1646</ele>
        <time>2012-08-23T20:03:21Z</time>
      </trkpt>
      <trkpt lat="59.9842321" lon="17.7381078">
        <ele>50.6066</ele>
        <time>2012-08-23T20:03:26Z</time>
      </trkpt>
      <trkpt lat="59.9841325" lon="17.738093">
        <ele>51.5679</ele>
        <time>2012-08-23T20:03:30Z</time>
      </trkpt>
      <trkpt lat="59.9840338" lon="17.7381038">
        <ele>51.5679</ele>
        <time>2012-08-23T20:03:34Z</time>
      </trkpt>
      <trkpt lat="59.9839214" lon="17.7381101">
        <ele>51.0872</ele>
        <time>2012-08-23T20:03:38Z</time>
      </trkpt>
      <trkpt lat="59.9838233" lon="17.738137">
        <ele>49.6453</ele>
        <time>2012-08-23T20:03:42Z</time>
      </trkpt>
      <trkpt lat="59.9837655" lon="17.7381689">
        <ele>51.0872</ele>
        <time>2012-08-23T20:03:44Z</time>
      </trkpt>
      <trkpt lat="59.9836344" lon="17.7382307">
        <ele>54.4518</ele>
        <time>2012-08-23T20:03:49Z</time>
      </trkpt>
      <trkpt lat="59.9836035" lon="17.738255">
        <ele>55.4131</ele>
        <time>2012-08-23T20:03:50Z</time>
      </trkpt>
      <trkpt lat="59.9835166" lon="17.7383224">
        <ele>59.2584</ele>
        <time>2012-08-23T20:03:53Z</time>
      </trkpt>
      <trkpt lat="59.983405" lon="17.7383588">
        <ele>61.6617</ele>
        <time>2012-08-23T20:03:57Z</time>
      </trkpt>
      <trkpt lat="59.9833023" lon="17.7382447">
        <ele>59.2584</ele>
        <time>2012-08-23T20:04:02Z</time>
      </trkpt>
      <trkpt lat="59.9831781" lon="17.7382799">
        <ele>59.7391</ele>
        <time>2012-08-23T20:04:06Z</time>
      </trkpt>
      <trkpt lat="59.9830509" lon="17.7383524">
        <ele>60.2197</ele>
        <time>2012-08-23T20:04:11Z</time>
      </trkpt>
      <trkpt lat="59.9829782" lon="17.738244">
        <ele>60.7003</ele>
        <time>2012-08-23T20:04:15Z</time>
      </trkpt>
      <trkpt lat="59.9829661" lon="17.7382199">
        <ele>59.2584</ele>
        <time>2012-08-23T20:04:16Z</time>
      </trkpt>
      <trkpt lat="59.9827998" lon="17.7382261">
        <ele>57.3358</ele>
        <time>2012-08-23T20:04:22Z</time>
      </trkpt>
      <trkpt lat="59.9826911" lon="17.7382126">
        <ele>56.3745</ele>
        <time>2012-08-23T20:04:26Z</time>
      </trkpt>
      <trkpt lat="59.9826156" lon="17.7382135">
        <ele>55.4131</ele>
        <time>2012-08-23T20:04:29Z</time>
      </trkpt>
      <trkpt lat="59.9825005" lon="17.7382098">
        <ele>55.4131</ele>
        <time>2012-08-23T20:04:33Z</time>
      </trkpt>
      <trkpt lat="59.9824081" lon="17.7381463">
        <ele>57.3358</ele>
        <time>2012-08-23T20:04:37Z</time>
      </trkpt>
      <trkpt lat="59.9823121" lon="17.7381488">
        <ele>57.8165</ele>
        <time>2012-08-23T20:04:41Z</time>
      </trkpt>
      <trkpt lat="59.9821897" lon="17.7381763">
        <ele>57.3358</ele>
        <time>2012-08-23T20:04:46Z</time>
      </trkpt>
      <trkpt lat="59.9821068" lon="17.7381975">
        <ele>54.9324</ele>
        <time>2012-08-23T20:04:50Z</time>
      </trkpt>
      <trkpt lat="59.9820425" lon="17.7382029">
        <ele>53.4905</ele>
        <time>2012-08-23T20:04:53Z</time>
      </trkpt>
      <trkpt lat="59.9819764" lon="17.7382319">
        <ele>52.0486</ele>
        <time>2012-08-23T20:04:56Z</time>
      </trkpt>
      <trkpt lat="59.9818639" lon="17.7383456">
        <ele>53.0098</ele>
        <time>2012-08-23T20:05:00Z</time>
      </trkpt>
      <trkpt lat="59.9817384" lon="17.7384469">
        <ele>54.9324</ele>
        <time>2012-08-23T20:05:04Z</time>
      </trkpt>
      <trkpt lat="59.981638" lon="17.7385239">
        <ele>57.3358</ele>
        <time>2012-08-23T20:05:08Z</time>
      </trkpt>
      <trkpt lat="59.9815836" lon="17.7385654">
        <ele>59.7391</ele>
        <time>2012-08-23T20:05:10Z</time>
      </trkpt>
      <trkpt lat="59.9814442" lon="17.7385949">
        <ele>60.2197</ele>
        <time>2012-08-23T20:05:14Z</time>
      </trkpt>
      <trkpt lat="59.9813258" lon="17.738631">
        <ele>62.1423</ele>
        <time>2012-08-23T20:05:18Z</time>
      </trkpt>
      <trkpt lat="59.9812324" lon="17.7386601">
        <ele>61.6617</ele>
        <time>2012-08-23T20:05:21Z</time>
      </trkpt>
      <trkpt lat="59.9811148" lon="17.7388047">
        <ele>62.1423</ele>
        <time>2012-08-23T20:05:25Z</time>
      </trkpt>
      <trkpt lat="59.9810146" lon="17.7388156">
        <ele>60.7003</ele>
        <time>2012-08-23T20:05:29Z</time>
      </trkpt>
      <trkpt lat="59.980833" lon="17.7388208">
        <ele>57.3358</ele>
        <time>2012-08-23T20:05:36Z</time>
      </trkpt>
      <trkpt lat="59.9807305" lon="17.7388159">
        <ele>54.9324</ele>
        <time>2012-08-23T20:05:40Z</time>
      </trkpt>
      <trkpt lat="59.9807052" lon="17.7388247">
        <ele>55.4131</ele>
        <time>2012-08-23T20:05:41Z</time>
      </trkpt>
      <trkpt lat="59.9805958" lon="17.7388446">
        <ele>54.9324</ele>
        <time>2012-08-23T20:05:46Z</time>
      </trkpt>
      <trkpt lat="59.9804871" lon="17.7388906">
        <ele>56.3745</ele>
        <time>2012-08-23T20:05:50Z</time>
      </trkpt>
      <trkpt lat="59.9804311" lon="17.7389192">
        <ele>56.8551</ele>
        <time>2012-08-23T20:05:52Z</time>
      </trkpt>
      <trkpt lat="59.9802715" lon="17.7389037">
        <ele>52.0486</ele>
        <time>2012-08-23T20:05:58Z</time>
      </trkpt>
      <trkpt lat="59.9802451" lon="17.738911">
        <ele>51.0872</ele>
        <time>2012-08-23T20:05:59Z</time>
      </trkpt>
      <trkpt lat="59.9801191" lon="17.7388187">
        <ele>46.7612</ele>
        <time>2012-08-23T20:06:04Z</time>
      </trkpt>
      <trkpt lat="59.979983" lon="17.7387939">
        <ele>41.9547</ele>
        <time>2012-08-23T20:06:09Z</time>
      </trkpt>
      <trkpt lat="59.9798814" lon="17.7387933">
        <ele>41.474</ele>
        <time>2012-08-23T20:06:13Z</time>
      </trkpt>
      <trkpt lat="59.9797611" lon="17.7388493">
        <ele>41.474</ele>
        <time>2012-08-23T20:06:17Z</time>
      </trkpt>
      <trkpt lat="59.9796067" lon="17.7389896">
        <ele>38.5901</ele>
        <time>2012-08-23T20:06:22Z</time>
      </trkpt>
      <trkpt lat="59.9795188" lon="17.7389938">
        <ele>37.1481</ele>
        <time>2012-08-23T20:06:26Z</time>
      </trkpt>
      <trkpt lat="59.9794081" lon="17.7390332">
        <ele>36.6675</ele>
        <time>2012-08-23T20:06:31Z</time>
      </trkpt>
      <trkpt lat="59.9792629" lon="17.7391269">
        <ele>39.0707</ele>
        <time>2012-08-23T20:06:37Z</time>
      </trkpt>
      <trkpt lat="59.979121" lon="17.7392361">
        <ele>40.9934</ele>
        <time>2012-08-23T20:06:42Z</time>
      </trkpt>
      <trkpt lat="59.978977" lon="17.7393073">
        <ele>41.9547</ele>
        <time>2012-08-23T20:06:47Z</time>
      </trkpt>
      <trkpt lat="59.9789514" lon="17.7393197">
        <ele>42.4354</ele>
        <time>2012-08-23T20:06:48Z</time>
      </trkpt>
      <trkpt lat="59.9788624" lon="17.7393344">
        <ele>40.5128</ele>
        <time>2012-08-23T20:06:52Z</time>
      </trkpt>
      <trkpt lat="59.9787119" lon="17.7393543">
        <ele>38.5901</ele>
        <time>2012-08-23T20:06:57Z</time>
      </trkpt>
      <trkpt lat="59.9786644" lon="17.7393551">
        <ele>38.1094</ele>
        <time>2012-08-23T20:06:59Z</time>
      </trkpt>
      <trkpt lat="59.9785481" lon="17.7392957">
        <ele>34.7449</ele>
        <time>2012-08-23T20:07:05Z</time>
      </trkpt>
      <trkpt lat="59.9784588" lon="17.7392959">
        <ele>32.8223</ele>
        <time>2012-08-23T20:07:09Z</time>
      </trkpt>
      <trkpt lat="59.9783166" lon="17.7392885">
        <ele>32.8223</ele>
        <time>2012-08-23T20:07:14Z</time>
      </trkpt>
      <trkpt lat="59.9782466" lon="17.739269">
        <ele>32.3416</ele>
        <time>2012-08-23T20:07:17Z</time>
      </trkpt>
      <trkpt lat="59.9781161" lon="17.7392497">
        <ele>34.7449</ele>
        <time>2012-08-23T20:07:22Z</time>
      </trkpt>
      <trkpt lat="59.9780482" lon="17.7391874">
        <ele>37.1481</ele>
        <time>2012-08-23T20:07:24Z</time>
      </trkpt>
      <trkpt lat="59.9779157" lon="17.7391336">
        <ele>34.2642</ele>
        <time>2012-08-23T20:07:30Z</time>
      </trkpt>
      <trkpt lat="59.9778135" lon="17.7390705">
        <ele>33.7834</ele>
        <time>2012-08-23T20:07:34Z</time>
      </trkpt>
      <trkpt lat="59.9776861" lon="17.7390435">
        <ele>30.8995</ele>
        <time>2012-08-23T20:07:39Z</time>
      </trkpt>
      <trkpt lat="59.9775474" lon="17.7390469">
        <ele>27.5349</ele>
        <time>2012-08-23T20:07:44Z</time>
      </trkpt>
      <trkpt lat="59.9774939" lon="17.739057">
        <ele>27.0543</ele>
        <time>2012-08-23T20:07:46Z</time>
      </trkpt>
      <trkpt lat="59.977406" lon="17.7390471">
        <ele>27.5349</ele>
        <time>2012-08-23T20:07:50Z</time>
      </trkpt>
      <trkpt lat="59.97731" lon="17.7390958">
        <ele>28.0155</ele>
        <time>2012-08-23T20:07:54Z</time>
      </trkpt>
      <trkpt lat="59.977282" lon="17.7391081">
        <ele>28.0155</ele>
        <time>2012-08-23T20:07:55Z</time>
      </trkpt>
      <trkpt lat="59.9771638" lon="17.739203">
        <ele>28.4962</ele>
        <time>2012-08-23T20:08:00Z</time>
      </trkpt>
      <trkpt lat="59.9770557" lon="17.7392549">
        <ele>30.8995</ele>
        <time>2012-08-23T20:08:04Z</time>
      </trkpt>
      <trkpt lat="59.976948" lon="17.7392831">
        <ele>33.7834</ele>
        <time>2012-08-23T20:08:08Z</time>
      </trkpt>
      <trkpt lat="59.9768578" lon="17.7393045">
        <ele>35.7061</ele>
        <time>2012-08-23T20:08:12Z</time>
      </trkpt>
      <trkpt lat="59.9767444" lon="17.7393331">
        <ele>34.7449</ele>
        <time>2012-08-23T20:08:16Z</time>
      </trkpt>
      <trkpt lat="59.97668" lon="17.7393952">
        <ele>34.2642</ele>
        <time>2012-08-23T20:08:19Z</time>
      </trkpt>
      <trkpt lat="59.9765931" lon="17.7394385">
        <ele>35.2255</ele>
        <time>2012-08-23T20:08:23Z</time>
      </trkpt>
      <trkpt lat="59.9765199" lon="17.7394807">
        <ele>36.6675</ele>
        <time>2012-08-23T20:08:27Z</time>
      </trkpt>
      <trkpt lat="59.9764834" lon="17.739518">
        <ele>36.1868</ele>
        <time>2012-08-23T20:08:29Z</time>
      </trkpt>
      <trkpt lat="59.9763624" lon="17.7396438">
        <ele>36.1868</ele>
        <time>2012-08-23T20:08:34Z</time>
      </trkpt>
      <trkpt lat="59.9762321" lon="17.7395986">
        <ele>35.2255</ele>
        <time>2012-08-23T20:08:39Z</time>
      </trkpt>
      <trkpt lat="59.9760978" lon="17.7395273">
        <ele>33.3029</ele>
        <time>2012-08-23T20:08:44Z</time>
      </trkpt>
      <trkpt lat="59.9760528" lon="17.7394781">
        <ele>32.3416</ele>
        <time>2012-08-23T20:08:46Z</time>
      </trkpt>
      <trkpt lat="59.975913" lon="17.7392641">
        <ele>32.3416</ele>
        <time>2012-08-23T20:08:53Z</time>
      </trkpt>
      <trkpt lat="59.9758226" lon="17.7391044">
        <ele>31.3801</ele>
        <time>2012-08-23T20:08:58Z</time>
      </trkpt>
      <trkpt lat="59.9757572" lon="17.7389699">
        <ele>29.9381</ele>
        <time>2012-08-23T20:09:02Z</time>
      </trkpt>
      <trkpt lat="59.9756612" lon="17.7387928">
        <ele>29.4575</ele>
        <time>2012-08-23T20:09:07Z</time>
      </trkpt>
      <trkpt lat="59.9755588" lon="17.7386141">
        <ele>29.9381</ele>
        <time>2012-08-23T20:09:12Z</time>
      </trkpt>
      <trkpt lat="59.9754878" lon="17.7384948">
        <ele>29.9381</ele>
        <time>2012-08-23T20:09:16Z</time>
      </trkpt>
      <trkpt lat="59.975401" lon="17.7383079">
        <ele>29.4575</ele>
        <time>2012-08-23T20:09:21Z</time>
      </trkpt>
      <trkpt lat="59.9753228" lon="17.7381832">
        <ele>28.9769</ele>
        <time>2012-08-23T20:09:25Z</time>
      </trkpt>
      <trkpt lat="59.9752639" lon="17.7380593">
        <ele>29.4575</ele>
        <time>2012-08-23T20:09:29Z</time>
      </trkpt>
      <trkpt lat="59.9751954" lon="17.7379458">
        <ele>29.9381</ele>
        <time>2012-08-23T20:09:33Z</time>
      </trkpt>
      <trkpt lat="59.9751546" lon="17.737895">
        <ele>30.4188</ele>
        <time>2012-08-23T20:09:35Z</time>
      </trkpt>
      <trkpt lat="59.9750205" lon="17.7377013">
        <ele>30.4188</ele>
        <time>2012-08-23T20:09:42Z</time>
      </trkpt>
      <trkpt lat="59.9749136" lon="17.737531">
        <ele>29.9381</ele>
        <time>2012-08-23T20:09:48Z</time>
      </trkpt>
      <trkpt lat="59.9748011" lon="17.7373066">
        <ele>29.9381</ele>
        <time>2012-08-23T20:09:55Z</time>
      </trkpt>
      <trkpt lat="59.9747402" lon="17.7371584">
        <ele>28.9769</ele>
        <time>2012-08-23T20:09:59Z</time>
      </trkpt>
      <trkpt lat="59.9746536" lon="17.7369342">
        <ele>28.9769</ele>
        <time>2012-08-23T20:10:05Z</time>
      </trkpt>
      <trkpt lat="59.9745853" lon="17.7367397">
        <ele>28.0155</ele>
        <time>2012-08-23T20:10:10Z</time>
      </trkpt>
      <trkpt lat="59.9744972" lon="17.7364244">
        <ele>28.4962</ele>
        <time>2012-08-23T20:10:17Z</time>
      </trkpt>
      <trkpt lat="59.9744632" lon="17.7362947">
        <ele>28.9769</ele>
        <time>2012-08-23T20:10:20Z</time>
      </trkpt>
      <trkpt lat="59.9744211" lon="17.7360608">
        <ele>31.3801</ele>
        <time>2012-08-23T20:10:25Z</time>
      </trkpt>
      <trkpt lat="59.9743981" lon="17.7359239">
        <ele>32.8223</ele>
        <time>2012-08-23T20:10:28Z</time>
      </trkpt>
      <trkpt lat="59.9743443" lon="17.7356335">
        <ele>35.2255</ele>
        <time>2012-08-23T20:10:34Z</time>
      </trkpt>
      <trkpt lat="59.9743289" lon="17.735452">
        <ele>36.6675</ele>
        <time>2012-08-23T20:10:38Z</time>
      </trkpt>
      <trkpt lat="59.9742916" lon="17.7352237">
        <ele>36.1868</ele>
        <time>2012-08-23T20:10:42Z</time>
      </trkpt>
      <trkpt lat="59.9742584" lon="17.7350099">
        <ele>36.1868</ele>
        <time>2012-08-23T20:10:46Z</time>
      </trkpt>
      <trkpt lat="59.9742424" lon="17.7347568">
        <ele>37.6287</ele>
        <time>2012-08-23T20:10:51Z</time>
      </trkpt>
      <trkpt lat="59.974245" lon="17.734468">
        <ele>39.0707</ele>
        <time>2012-08-23T20:10:57Z</time>
      </trkpt>
      <trkpt lat="59.9742632" lon="17.7342787">
        <ele>40.5128</ele>
        <time>2012-08-23T20:11:01Z</time>
      </trkpt>
      <trkpt lat="59.974285" lon="17.7341375">
        <ele>41.474</ele>
        <time>2012-08-23T20:11:04Z</time>
      </trkpt>
      <trkpt lat="59.9742937" lon="17.7338643">
        <ele>41.9547</ele>
        <time>2012-08-23T20:11:09Z</time>
      </trkpt>
      <trkpt lat="59.9743023" lon="17.7336245">
        <ele>40.9934</ele>
        <time>2012-08-23T20:11:14Z</time>
      </trkpt>
      <trkpt lat="59.9743247" lon="17.7333944">
        <ele>40.0321</ele>
        <time>2012-08-23T20:11:19Z</time>
      </trkpt>
      <trkpt lat="59.9743266" lon="17.7332842">
        <ele>39.0707</ele>
        <time>2012-08-23T20:11:21Z</time>
      </trkpt>
      <trkpt lat="59.9743399" lon="17.7329368">
        <ele>38.1094</ele>
        <time>2012-08-23T20:11:28Z</time>
      </trkpt>
      <trkpt lat="59.9743394" lon="17.7326963">
        <ele>38.1094</ele>
        <time>2012-08-23T20:11:33Z</time>
      </trkpt>
      <trkpt lat="59.9743316" lon="17.7325114">
        <ele>38.1094</ele>
        <time>2012-08-23T20:11:37Z</time>
      </trkpt>
      <trkpt lat="59.9743242" lon="17.7322152">
        <ele>38.5901</ele>
        <time>2012-08-23T20:11:43Z</time>
      </trkpt>
      <trkpt lat="59.9743128" lon="17.7319597">
        <ele>39.0707</ele>
        <time>2012-08-23T20:11:48Z</time>
      </trkpt>
      <trkpt lat="59.9743088" lon="17.7316653">
        <ele>38.1094</ele>
        <time>2012-08-23T20:11:54Z</time>
      </trkpt>
      <trkpt lat="59.974309" lon="17.7316156">
        <ele>38.5901</ele>
        <time>2012-08-23T20:11:55Z</time>
      </trkpt>
      <trkpt lat="59.9743133" lon="17.7313612">
        <ele>39.0707</ele>
        <time>2012-08-23T20:12:00Z</time>
      </trkpt>
      <trkpt lat="59.9743196" lon="17.7311516">
        <ele>39.0707</ele>
        <time>2012-08-23T20:12:04Z</time>
      </trkpt>
      <trkpt lat="59.9743278" lon="17.7309128">
        <ele>38.1094</ele>
        <time>2012-08-23T20:12:09Z</time>
      </trkpt>
      <trkpt lat="59.9743593" lon="17.7306578">
        <ele>36.6675</ele>
        <time>2012-08-23T20:12:14Z</time>
      </trkpt>
      <trkpt lat="59.9743684" lon="17.7304637">
        <ele>35.2255</ele>
        <time>2012-08-23T20:12:18Z</time>
      </trkpt>
      <trkpt lat="59.9743896" lon="17.7301719">
        <ele>35.7061</ele>
        <time>2012-08-23T20:12:24Z</time>
      </trkpt>
      <trkpt lat="59.9743953" lon="17.7299189">
        <ele>34.7449</ele>
        <time>2012-08-23T20:12:29Z</time>
      </trkpt>
      <trkpt lat="59.974424" lon="17.7296053">
        <ele>35.2255</ele>
        <time>2012-08-23T20:12:35Z</time>
      </trkpt>
      <trkpt lat="59.9744375" lon="17.7293983">
        <ele>35.7061</ele>
        <time>2012-08-23T20:12:39Z</time>
      </trkpt>
      <trkpt lat="59.9744346" lon="17.72915">
        <ele>35.2255</ele>
        <time>2012-08-23T20:12:44Z</time>
      </trkpt>
      <trkpt lat="59.9744356" lon="17.7290581">
        <ele>34.7449</ele>
        <time>2012-08-23T20:12:46Z</time>
      </trkpt>
      <trkpt lat="59.9744843" lon="17.7290687">
        <ele>33.7834</ele>
        <time>2012-08-23T20:12:50Z</time>
      </trkpt>
      <trkpt lat="59.9745014" lon="17.7293764">
        <ele>31.8607</ele>
        <time>2012-08-23T20:12:56Z</time>
      </trkpt>
      <trkpt lat="59.9744796" lon="17.7296997">
        <ele>30.4188</ele>
        <time>2012-08-23T20:13:01Z</time>
      </trkpt>
      <trkpt lat="59.9744668" lon="17.7300022">
        <ele>29.4575</ele>
        <time>2012-08-23T20:13:06Z</time>
      </trkpt>
      <trkpt lat="59.9744369" lon="17.7302641">
        <ele>28.4962</ele>
        <time>2012-08-23T20:13:11Z</time>
      </trkpt>
      <trkpt lat="59.974404" lon="17.7305217">
        <ele>27.0543</ele>
        <time>2012-08-23T20:13:16Z</time>
      </trkpt>
      <trkpt lat="59.9743772" lon="17.7308275">
        <ele>25.6123</ele>
        <time>2012-08-23T20:13:22Z</time>
      </trkpt>
      <trkpt lat="59.9743539" lon="17.7311158">
        <ele>25.6123</ele>
        <time>2012-08-23T20:13:28Z</time>
      </trkpt>
      <trkpt lat="59.9743422" lon="17.7313213">
        <ele>25.1317</ele>
        <time>2012-08-23T20:13:32Z</time>
      </trkpt>
      <trkpt lat="59.9743257" lon="17.7315918">
        <ele>24.1703</ele>
        <time>2012-08-23T20:13:38Z</time>
      </trkpt>
      <trkpt lat="59.9743204" lon="17.7317694">
        <ele>23.6896</ele>
        <time>2012-08-23T20:13:42Z</time>
      </trkpt>
      <trkpt lat="59.9743305" lon="17.7320669">
        <ele>24.651</ele>
        <time>2012-08-23T20:13:48Z</time>
      </trkpt>
      <trkpt lat="59.9743427" lon="17.7323058">
        <ele>25.1317</ele>
        <time>2012-08-23T20:13:53Z</time>
      </trkpt>
      <trkpt lat="59.9743517" lon="17.7325381">
        <ele>26.0929</ele>
        <time>2012-08-23T20:13:58Z</time>
      </trkpt>
      <trkpt lat="59.9743651" lon="17.7327217">
        <ele>27.0543</ele>
        <time>2012-08-23T20:14:02Z</time>
      </trkpt>
      <trkpt lat="59.9743615" lon="17.7329641">
        <ele>28.0155</ele>
        <time>2012-08-23T20:14:07Z</time>
      </trkpt>
      <trkpt lat="59.9743573" lon="17.7331913">
        <ele>28.0155</ele>
        <time>2012-08-23T20:14:12Z</time>
      </trkpt>
      <trkpt lat="59.9743526" lon="17.7334133">
        <ele>28.4962</ele>
        <time>2012-08-23T20:14:17Z</time>
      </trkpt>
      <trkpt lat="59.974342" lon="17.7336458">
        <ele>28.4962</ele>
        <time>2012-08-23T20:14:22Z</time>
      </trkpt>
      <trkpt lat="59.9743215" lon="17.733879">
        <ele>28.0155</ele>
        <time>2012-08-23T20:14:27Z</time>
      </trkpt>
      <trkpt lat="59.974319" lon="17.7341435">
        <ele>27.5349</ele>
        <time>2012-08-23T20:14:33Z</time>
      </trkpt>
      <trkpt lat="59.9743157" lon="17.734403">
        <ele>27.5349</ele>
        <time>2012-08-23T20:14:39Z</time>
      </trkpt>
      <trkpt lat="59.9743139" lon="17.7346701">
        <ele>28.4962</ele>
        <time>2012-08-23T20:14:45Z</time>
      </trkpt>
      <trkpt lat="59.9743345" lon="17.734966">
        <ele>29.9381</ele>
        <time>2012-08-23T20:14:51Z</time>
      </trkpt>
      <trkpt lat="59.9743653" lon="17.7352116">
        <ele>31.3801</ele>
        <time>2012-08-23T20:14:56Z</time>
      </trkpt>
      <trkpt lat="59.9744097" lon="17.7354977">
        <ele>33.3029</ele>
        <time>2012-08-23T20:15:02Z</time>
      </trkpt>
      <trkpt lat="59.9744442" lon="17.7356832">
        <ele>35.2255</ele>
        <time>2012-08-23T20:15:06Z</time>
      </trkpt>
      <trkpt lat="59.974477" lon="17.7358795">
        <ele>35.7061</ele>
        <time>2012-08-23T20:15:10Z</time>
      </trkpt>
      <trkpt lat="59.974532" lon="17.7361707">
        <ele>34.7449</ele>
        <time>2012-08-23T20:15:16Z</time>
      </trkpt>
      <trkpt lat="59.9745861" lon="17.7364258">
        <ele>32.3416</ele>
        <time>2012-08-23T20:15:22Z</time>
      </trkpt>
      <trkpt lat="59.9746388" lon="17.7366844">
        <ele>29.9381</ele>
        <time>2012-08-23T20:15:28Z</time>
      </trkpt>
      <trkpt lat="59.9747206" lon="17.7369456">
        <ele>27.5349</ele>
        <time>2012-08-23T20:15:35Z</time>
      </trkpt>
      <trkpt lat="59.9747983" lon="17.7371269">
        <ele>26.0929</ele>
        <time>2012-08-23T20:15:40Z</time>
      </trkpt>
      <trkpt lat="59.9749126" lon="17.7373763">
        <ele>26.0929</ele>
        <time>2012-08-23T20:15:47Z</time>
      </trkpt>
      <trkpt lat="59.9750178" lon="17.7375764">
        <ele>25.6123</ele>
        <time>2012-08-23T20:15:53Z</time>
      </trkpt>
      <trkpt lat="59.9751028" lon="17.7377431">
        <ele>24.651</ele>
        <time>2012-08-23T20:15:58Z</time>
      </trkpt>
      <trkpt lat="59.9751842" lon="17.7379007">
        <ele>24.651</ele>
        <time>2012-08-23T20:16:03Z</time>
      </trkpt>
      <trkpt lat="59.9752981" lon="17.7380975">
        <ele>26.0929</ele>
        <time>2012-08-23T20:16:09Z</time>
      </trkpt>
      <trkpt lat="59.9753934" lon="17.7382733">
        <ele>27.0543</ele>
        <time>2012-08-23T20:16:14Z</time>
      </trkpt>
      <trkpt lat="59.9755275" lon="17.7385025">
        <ele>28.0155</ele>
        <time>2012-08-23T20:16:21Z</time>
      </trkpt>
      <trkpt lat="59.9756465" lon="17.7387111">
        <ele>28.0155</ele>
        <time>2012-08-23T20:16:27Z</time>
      </trkpt>
      <trkpt lat="59.9757836" lon="17.7389602">
        <ele>28.0155</ele>
        <time>2012-08-23T20:16:34Z</time>
      </trkpt>
      <trkpt lat="59.9758731" lon="17.7391501">
        <ele>27.0543</ele>
        <time>2012-08-23T20:16:39Z</time>
      </trkpt>
      <trkpt lat="59.9760088" lon="17.7393594">
        <ele>28.9769</ele>
        <time>2012-08-23T20:16:45Z</time>
      </trkpt>
      <trkpt lat="59.9761127" lon="17.7395333">
        <ele>30.4188</ele>
        <time>2012-08-23T20:16:50Z</time>
      </trkpt>
      <trkpt lat="59.9762176" lon="17.7397024">
        <ele>30.4188</ele>
        <time>2012-08-23T20:16:56Z</time>
      </trkpt>
      <trkpt lat="59.976331" lon="17.7397923">
        <ele>30.8995</ele>
        <time>2012-08-23T20:17:02Z</time>
      </trkpt>
      <trkpt lat="59.9764278" lon="17.7397158">
        <ele>29.9381</ele>
        <time>2012-08-23T20:17:07Z</time>
      </trkpt>
      <trkpt lat="59.976586" lon="17.7395018">
        <ele>30.8995</ele>
        <time>2012-08-23T20:17:15Z</time>
      </trkpt>
      <trkpt lat="59.9766813" lon="17.7394194">
        <ele>31.3801</ele>
        <time>2012-08-23T20:17:20Z</time>
      </trkpt>
      <trkpt lat="59.9767714" lon="17.7393671">
        <ele>32.8223</ele>
        <time>2012-08-23T20:17:24Z</time>
      </trkpt>
      <trkpt lat="59.9768524" lon="17.7393376">
        <ele>32.8223</ele>
        <time>2012-08-23T20:17:27Z</time>
      </trkpt>
      <trkpt lat="59.9776789" lon="17.7389442">
        <ele>35.7061</ele>
        <time>2012-08-23T20:18:32Z</time>
      </trkpt>
      <trkpt lat="59.9776975" lon="17.7389522">
        <ele>35.7061</ele>
        <time>2012-08-23T20:18:33Z</time>
      </trkpt>
      <trkpt lat="59.9778192" lon="17.7389927">
        <ele>36.1868</ele>
        <time>2012-08-23T20:18:37Z</time>
      </trkpt>
      <trkpt lat="59.9779615" lon="17.7390671">
        <ele>35.7061</ele>
        <time>2012-08-23T20:18:42Z</time>
      </trkpt>
      <trkpt lat="59.9780621" lon="17.7391087">
        <ele>36.6675</ele>
        <time>2012-08-23T20:18:46Z</time>
      </trkpt>
      <trkpt lat="59.9781885" lon="17.7391642">
        <ele>36.1868</ele>
        <time>2012-08-23T20:18:51Z</time>
      </trkpt>
      <trkpt lat="59.9783286" lon="17.7392201">
        <ele>37.6287</ele>
        <time>2012-08-23T20:18:56Z</time>
      </trkpt>
      <trkpt lat="59.9784679" lon="17.7392605">
        <ele>37.6287</ele>
        <time>2012-08-23T20:19:01Z</time>
      </trkpt>
      <trkpt lat="59.9786071" lon="17.7393391">
        <ele>35.2255</ele>
        <time>2012-08-23T20:19:07Z</time>
      </trkpt>
      <trkpt lat="59.9787615" lon="17.7393391">
        <ele>36.6675</ele>
        <time>2012-08-23T20:19:12Z</time>
      </trkpt>
      <trkpt lat="59.9788806" lon="17.7393402">
        <ele>37.6287</ele>
        <time>2012-08-23T20:19:16Z</time>
      </trkpt>
      <trkpt lat="59.9789061" lon="17.7395398">
        <ele>36.6675</ele>
        <time>2012-08-23T20:19:20Z</time>
      </trkpt>
      <trkpt lat="59.978831" lon="17.7396941">
        <ele>37.1481</ele>
        <time>2012-08-23T20:19:24Z</time>
      </trkpt>
      <trkpt lat="59.9788199" lon="17.7398131">
        <ele>37.6287</ele>
        <time>2012-08-23T20:19:27Z</time>
      </trkpt>
      <trkpt lat="59.978836" lon="17.7399401">
        <ele>36.6675</ele>
        <time>2012-08-23T20:19:30Z</time>
      </trkpt>
    </trkseg>
  </trk>
</gpx>